Observation data for Muleshoe on 06/26/2019      Previous  Date  Next       Current Mesonet Observations  Soil Data  Daily Summary Page  Observations in Plain Language
KMUS 260500Z 12023G31KT 23/14 A3009 RMK A01 T02320139  RH  058%=      5-min Rain = 0
KMUS 260505Z 12023G30KT 23/14 A3009 RMK A01 T02310140  RH  059%=      5-min Rain = 0
KMUS 260510Z 12021G28KT 23/14 A301 RMK A01 T02300140  RH  059%=      5-min Rain = 0
KMUS 260515Z 12021G29KT 23/14 A3009 RMK A01 T02280141  RH  060%=      5-min Rain = 0
KMUS 260520Z 13020G28KT 23/14 A3009 RMK A01 T02260142  RH  062%=      5-min Rain = 0
KMUS 260525Z 12021KT 23/14 A3009 RMK A01 T02250144  RH  063%=      5-min Rain = 0
KMUS 260530Z 12019G24KT 22/15 A3009 RMK A01 T02230145  RH  064%=      5-min Rain = 0
KMUS 260535Z 12019G24KT 22/15 A3009 RMK A01 T02220146  RH  065%=      5-min Rain = 0
KMUS 260540Z 12019G26KT 22/15 A3009 RMK A01 T02220148  RH  066%=      5-min Rain = 0
KMUS 260545Z 12019G26KT 22/15 A3009 RMK A01 T02220152  RH  067%=      5-min Rain = 0
KMUS 260550Z 12018G25KT 22/15 A3009 RMK A01 T02220154  RH  069%=      5-min Rain = 0
KMUS 260555Z 12017G24KT 22/16 A3009 RMK A01 T02210156  RH  070%=      5-min Rain = 0
KMUS 260600Z 11014G21KT 22/16 A301 RMK A01 T02190156  RH  071%=      5-min Rain = 0
KMUS 260605Z 11014KT 22/16 A301 RMK A01 T02150155  RH  072%=      5-min Rain = 0
KMUS 260610Z 11015KT 21/16 A301 RMK A01 T02120155  RH  073%=      5-min Rain = 0
KMUS 260615Z 11014KT 21/16 A301 RMK A01 T02090156  RH  075%=      5-min Rain = 0
KMUS 260620Z 12015KT 21/16 A301 RMK A01 T02080157  RH  076%=      5-min Rain = 0
KMUS 260625Z 12013KT 21/16 A3011 RMK A01 T02070157  RH  077%=      5-min Rain = 0
KMUS 260630Z 12014KT 21/16 A301 RMK A01 T02060157  RH  077%=      5-min Rain = 0
KMUS 260635Z 12015KT 21/16 A301 RMK A01 T02070158  RH  077%=      5-min Rain = 0
KMUS 260640Z 12014G19KT 21/16 A301 RMK A01 T02070158  RH  077%=      5-min Rain = 0
KMUS 260645Z 12012KT 21/16 A301 RMK A01 T02050158  RH  078%=      5-min Rain = 0
KMUS 260650Z 12013KT 21/16 A301 RMK A01 T02050159  RH  078%=      5-min Rain = 0
KMUS 260655Z 11010KT 21/16 A3011 RMK A01 T02050158  RH  078%=      5-min Rain = 0
KMUS 260700Z 11011KT 20/16 A3011 RMK A01 T02020158  RH  079%=      5-min Rain = 0
KMUS 260705Z 11009KT 20/16 A3011 RMK A01 T02010157  RH  079%=      5-min Rain = 0
KMUS 260710Z 11008KT 20/16 A3011 RMK A01 T02000158  RH  080%=      5-min Rain = 0
KMUS 260715Z 12010KT 20/16 A3011 RMK A01 T01990158  RH  081%=      5-min Rain = 0
KMUS 260720Z 12011KT 20/16 A3011 RMK A01 T02000158  RH  081%=      5-min Rain = 0
KMUS 260725Z 11011KT 20/16 A3011 RMK A01 T01990155  RH  079%=      5-min Rain = 0
KMUS 260730Z 10010KT 20/15 A3011 RMK A01 T01970150  RH  078%=      5-min Rain = 0
KMUS 260735Z 10011KT 20/15 A301 RMK A01 T01960149  RH  078%=      5-min Rain = 0
KMUS 260740Z 11010KT 19/15 A301 RMK A01 T01940149  RH  079%=      5-min Rain = 0
KMUS 260745Z 12008KT 19/15 A301 RMK A01 T01920149  RH  080%=      5-min Rain = 0
KMUS 260750Z 12008KT 19/15 A3011 RMK A01 T01900149  RH  081%=      5-min Rain = 0
KMUS 260755Z 11007KT 19/15 A3011 RMK A01 T01880149  RH  082%=      5-min Rain = 0
KMUS 260800Z 11006KT 19/15 A3011 RMK A01 T01850148  RH  083%=      5-min Rain = 0
KMUS 260805Z 10006KT 18/15 A3011 RMK A01 T01810147  RH  084%=      5-min Rain = 0
KMUS 260810Z 10006KT 18/15 A3011 RMK A01 T01800147  RH  085%=      5-min Rain = 0
KMUS 260815Z 10006KT 18/15 A3011 RMK A01 T01790147  RH  085%=      5-min Rain = 0
KMUS 260820Z 10005KT 18/15 A301 RMK A01 T01790147  RH  085%=      5-min Rain = 0
KMUS 260825Z 12004KT 18/15 A301 RMK A01 T01790146  RH  085%=      5-min Rain = 0
KMUS 260830Z 12004KT 18/15 A301 RMK A01 T01770145  RH  085%=      5-min Rain = 0
KMUS 260835Z 13004KT 17/14 A301 RMK A01 T01740144  RH  086%=      5-min Rain = 0
KMUS 260840Z 14003KT 17/14 A301 RMK A01 T01710142  RH  087%=      5-min Rain = 0
KMUS 260845Z 14004KT 17/14 A301 RMK A01 T01690142  RH  088%=      5-min Rain = 0
KMUS 260850Z 14004KT 17/14 A301 RMK A01 T01660141  RH  089%=      5-min Rain = 0
KMUS 260855Z 13005KT 16/14 A301 RMK A01 T01630140  RH  090%=      5-min Rain = 0
KMUS 260900Z 13005KT 16/14 A301 RMK A01 T01620141  RH  091%=      5-min Rain = 0
KMUS 260905Z 13006KT 16/14 A301 RMK A01 T01600140  RH  092%=      5-min Rain = 0
KMUS 260910Z 13006KT 16/14 A301 RMK A01 T01590141  RH  092%=      5-min Rain = 0
KMUS 260915Z 14006KT 16/15 A301 RMK A01 T01640148  RH  094%=      5-min Rain = 0
KMUS 260920Z 15008KT 17/15 A3009 RMK A01 T01700154  RH  094%=      5-min Rain = 0
KMUS 260925Z 16009KT 18/16 A3009 RMK A01 T01780159  RH  093%=      5-min Rain = 0
KMUS 260930Z 16008KT 18/16 A3009 RMK A01 T01840161  RH  090%=      5-min Rain = 0
KMUS 260935Z 16009KT 19/16 A3009 RMK A01 T01870160  RH  089%=      5-min Rain = 0
KMUS 260940Z 16010KT 19/16 A3008 RMK A01 T01890160  RH  087%=      5-min Rain = 0
KMUS 260945Z 16010KT 19/16 A3008 RMK A01 T01910160  RH  086%=      5-min Rain = 0
KMUS 260950Z 17010KT 19/16 A3008 RMK A01 T01930160  RH  085%=      5-min Rain = 0
KMUS 260955Z 17009KT 20/16 A3008 RMK A01 T01950159  RH  084%=      5-min Rain = 0
KMUS 261000Z 17009KT 20/16 A3008 RMK A01 T01950159  RH  083%=      5-min Rain = 0
KMUS 261005Z 17008KT 20/16 A3008 RMK A01 T01960159  RH  083%=      5-min Rain = 0
KMUS 261010Z 18006KT 19/16 A3008 RMK A01 T01940158  RH  083%=      5-min Rain = 0
KMUS 261015Z 19007KT 19/16 A3008 RMK A01 T01930158  RH  084%=      5-min Rain = 0
KMUS 261020Z 19007KT 19/16 A3009 RMK A01 T01930157  RH  084%=      5-min Rain = 0
KMUS 261025Z 19007KT 19/16 A3009 RMK A01 T01920157  RH  084%=      5-min Rain = 0
KMUS 261030Z 20007KT 19/16 A3009 RMK A01 T01910156  RH  084%=      5-min Rain = 0
KMUS 261035Z 20007KT 19/16 A3009 RMK A01 T01890156  RH  085%=      5-min Rain = 0
KMUS 261040Z 21008KT 19/16 A3009 RMK A01 T01890156  RH  085%=      5-min Rain = 0
KMUS 261045Z 20008KT 19/16 A3008 RMK A01 T01880156  RH  085%=      5-min Rain = 0
KMUS 261050Z 20007KT 19/16 A3009 RMK A01 T01870156  RH  086%=      5-min Rain = 0
KMUS 261055Z 19007KT 19/16 A3009 RMK A01 T01870155  RH  086%=      5-min Rain = 0
KMUS 261100Z 19008KT 19/16 A3008 RMK A01 T01870156  RH  086%=      5-min Rain = 0
KMUS 261105Z 20009KT 19/16 A3008 RMK A01 T01870156  RH  086%=      5-min Rain = 0
KMUS 261110Z 21010KT 19/16 A3008 RMK A01 T01870156  RH  086%=      5-min Rain = 0
KMUS 261115Z 21011KT 19/16 A3008 RMK A01 T01870156  RH  086%=      5-min Rain = 0
KMUS 261120Z 21010KT 19/16 A3008 RMK A01 T01860156  RH  086%=      5-min Rain = 0
KMUS 261125Z 21011KT 19/16 A3008 RMK A01 T01860156  RH  087%=      5-min Rain = 0
KMUS 261130Z 20009G14KT 19/16 A3009 RMK A01 T01860156  RH  086%=      5-min Rain = 0
KMUS 261135Z 18007KT 19/16 A3009 RMK A01 T01870156  RH  086%=      5-min Rain = 0
KMUS 261140Z 14006KT 19/16 A301 RMK A01 T01850155  RH  086%=      5-min Rain = 0
KMUS 261145Z 13005KT 18/15 A301 RMK A01 T01820154  RH  088%=      5-min Rain = 0
KMUS 261150Z 17005KT 18/15 A301 RMK A01 T01810154  RH  088%=      5-min Rain = 0
KMUS 261155Z 20007KT 18/16 A301 RMK A01 T01810155  RH  088%=      5-min Rain = 0
KMUS 261200Z 22008KT 18/16 A301 RMK A01 T01820155  RH  088%=      5-min Rain = 0
KMUS 261205Z 23007KT 18/16 A301 RMK A01 T01830156  RH  088%=      5-min Rain = 0
KMUS 261210Z 25002KT 18/16 A3011 RMK A01 T01830156  RH  088%=      5-min Rain = 0
KMUS 261215Z 03003KT 18/16 A3011 RMK A01 T01830156  RH  088%=      5-min Rain = 0
KMUS 261220Z 02003KT 18/16 A3011 RMK A01 T01830156  RH  089%=      5-min Rain = 0
KMUS 261225Z 34002KT 18/16 A3012 RMK A01 T01830157  RH  089%=      5-min Rain = 0
KMUS 261230Z 07003KT 18/16 A3012 RMK A01 T01840159  RH  089%=      5-min Rain = 0
KMUS 261235Z 10002KT 19/16 A3012 RMK A01 T01870161  RH  089%=      5-min Rain = 0
KMUS 261240Z 21004KT 19/16 A3012 RMK A01 T01880161  RH  088%=      5-min Rain = 0
KMUS 261245Z 19006KT 19/16 A3012 RMK A01 T01910161  RH  087%=      5-min Rain = 0
KMUS 261250Z 17005KT 20/16 A3012 RMK A01 T01950162  RH  085%=      5-min Rain = 0
KMUS 261255Z 20006KT 20/16 A3012 RMK A01 T01980162  RH  084%=      5-min Rain = 0
KMUS 261300Z 21005KT 20/16 A3013 RMK A01 T01990162  RH  083%=      5-min Rain = 0
KMUS 261305Z 18004KT 20/16 A3013 RMK A01 T02010163  RH  083%=      5-min Rain = 0
KMUS 261310Z 20005KT 20/16 A3013 RMK A01 T02010162  RH  082%=      5-min Rain = 0
KMUS 261315Z 21005KT 20/16 A3013 RMK A01 T02020164  RH  083%=      5-min Rain = 0
KMUS 261320Z 21005KT 20/16 A3014 RMK A01 T02040164  RH  082%=      5-min Rain = 0
KMUS 261325Z 22005KT 21/16 A3014 RMK A01 T02060164  RH  081%=      5-min Rain = 0
KMUS 261330Z 23006KT 21/16 A3014 RMK A01 T02070164  RH  080%=      5-min Rain = 0
KMUS 261335Z 23007KT 21/16 A3015 RMK A01 T02080164  RH  079%=      5-min Rain = 0
KMUS 261340Z 21007KT 21/16 A3015 RMK A01 T02090164  RH  079%=      5-min Rain = 0
KMUS 261345Z 21007KT 21/17 A3015 RMK A01 T02100165  RH  079%=      5-min Rain = 0
KMUS 261350Z 21007KT 21/17 A3015 RMK A01 T02120165  RH  078%=      5-min Rain = 0
KMUS 261355Z 19007KT 21/17 A3016 RMK A01 T02140166  RH  078%=      5-min Rain = 0
KMUS 261400Z 21008G13KT 22/17 A3016 RMK A01 T02170168  RH  077%=      5-min Rain = 0
KMUS 261405Z 21010KT 22/17 A3016 RMK A01 T02190167  RH  076%=      5-min Rain = 0
KMUS 261410Z 20010KT 22/17 A3016 RMK A01 T02220166  RH  074%=      5-min Rain = 0
KMUS 261415Z 21009KT 22/17 A3016 RMK A01 T02230166  RH  074%=      5-min Rain = 0
KMUS 261420Z 21009KT 23/17 A3017 RMK A01 T02250165  RH  072%=      5-min Rain = 0
KMUS 261425Z 20009KT 23/17 A3017 RMK A01 T02280165  RH  071%=      5-min Rain = 0
KMUS 261430Z 21009KT 23/17 A3017 RMK A01 T02300165  RH  070%=      5-min Rain = 0
KMUS 261435Z 21010G15KT 23/16 A3017 RMK A01 T02320163  RH  068%=      5-min Rain = 0
KMUS 261440Z 21010KT 23/16 A3017 RMK A01 T02330162  RH  068%=      5-min Rain = 0
KMUS 261445Z 20009KT 24/16 A3017 RMK A01 T02360162  RH  066%=      5-min Rain = 0
KMUS 261450Z 20009KT 24/16 A3017 RMK A01 T02400162  RH  065%=      5-min Rain = 0
KMUS 261455Z 20010KT 24/16 A3017 RMK A01 T02420161  RH  063%=      5-min Rain = 0
KMUS 261500Z 20010KT 24/16 A3017 RMK A01 T02440161  RH  063%=      5-min Rain = 0
KMUS 261505Z 21011KT 25/16 A3017 RMK A01 T02470157  RH  060%=      5-min Rain = 0
KMUS 261510Z 20011KT 25/16 A3016 RMK A01 T02490156  RH  059%=      5-min Rain = 0
KMUS 261515Z 20010G15KT 25/16 A3016 RMK A01 T02520155  RH  058%=      5-min Rain = 0
KMUS 261520Z 20010KT 25/16 A3016 RMK A01 T02540156  RH  057%=      5-min Rain = 0
KMUS 261525Z 20010KT 26/16 A3016 RMK A01 T02560155  RH  056%=      5-min Rain = 0
KMUS 261530Z 21010KT 26/15 A3016 RMK A01 T02590154  RH  055%=      5-min Rain = 0
KMUS 261535Z 21010G15KT 26/15 A3016 RMK A01 T02610152  RH  053%=      5-min Rain = 0
KMUS 261540Z 19011KT 27/15 A3016 RMK A01 T02650148  RH  051%=      5-min Rain = 0
KMUS 261545Z 19011KT 27/15 A3016 RMK A01 T02660147  RH  050%=      5-min Rain = 0
KMUS 261550Z 20012KT 27/14 A3016 RMK A01 T02700141  RH  047%=      5-min Rain = 0
KMUS 261555Z 20010G15KT 27/14 A3015 RMK A01 T02710142  RH  047%=      5-min Rain = 0
KMUS 261600Z 20012KT 27/14 A3015 RMK A01 T02740139  RH  045%=      5-min Rain = 0
KMUS 261605Z 20013KT 28/14 A3015 RMK A01 T02750136  RH  044%=      5-min Rain = 0
KMUS 261610Z 20013KT 28/13 A3015 RMK A01 T02770133  RH  043%=      5-min Rain = 0
KMUS 261615Z 20013G18KT 28/13 A3015 RMK A01 T02790132  RH  042%=      5-min Rain = 0
KMUS 261620Z 20014KT 28/13 A3015 RMK A01 T02810126  RH  040%=      5-min Rain = 0
KMUS 261625Z 20013G18KT 28/12 A3014 RMK A01 T02830124  RH  039%=      5-min Rain = 0
KMUS 261630Z 19011G18KT 29/13 A3014 RMK A01 T02890134  RH  040%=      5-min Rain = 0
KMUS 261635Z 19015G20KT 29/12 A3014 RMK A01 T02890120  RH  036%=      5-min Rain = 0
KMUS 261640Z 19015KT 29/12 A3014 RMK A01 T02900115  RH  035%=      5-min Rain = 0
KMUS 261645Z 19014KT 29/12 A3013 RMK A01 T02920116  RH  035%=      5-min Rain = 0
KMUS 261650Z 20014G19KT 30/12 A3013 RMK A01 T02970115  RH  034%=      5-min Rain = 0
KMUS 261655Z 19014KT 30/11 A3013 RMK A01 T02990110  RH  032%=      5-min Rain = 0
KMUS 261700Z 19014G19KT 30/11 A3013 RMK A01 T02990113  RH  033%=      5-min Rain = 0
KMUS 261705Z 19015G20KT 30/11 A3013 RMK A01 T03020107  RH  031%=      5-min Rain = 0
KMUS 261710Z 19014G19KT 30/11 A3013 RMK A01 T03040110  RH  031%=      5-min Rain = 0
KMUS 261715Z 18014KT 31/11 A3013 RMK A01 T03050108  RH  031%=      5-min Rain = 0
KMUS 261720Z 18012G17KT 31/11 A3013 RMK A01 T03070107  RH  030%=      5-min Rain = 0
KMUS 261725Z 19013G18KT 31/10 A3013 RMK A01 T03090103  RH  029%=      5-min Rain = 0
KMUS 261730Z 18012KT 31/11 A3013 RMK A01 T03110106  RH  029%=      5-min Rain = 0
KMUS 261735Z 18014G20KT 31/10 A3013 RMK A01 T03140100  RH  027%=      5-min Rain = 0
KMUS 261740Z 18013G21KT 32/10 A3013 RMK A01 T03160096  RH  027%=      5-min Rain = 0
KMUS 261745Z 18015G22KT 32/09 A3013 RMK A01 T03160089  RH  025%=      5-min Rain = 0
KMUS 261750Z 19016G21KT 32/08 A3013 RMK A01 T03150080  RH  024%=      5-min Rain = 0
KMUS 261755Z 19014G19KT 32/10 A3013 RMK A01 T03160095  RH  026%=      5-min Rain = 0
KMUS 261800Z 17015G21KT 32/09 A3013 RMK A01 T03200086  RH  024%=      5-min Rain = 0
KMUS 261805Z 18013G18KT 32/08 A3013 RMK A01 T03190083  RH  024%=      5-min Rain = 0
KMUS 261810Z 17013G20KT 32/09 A3013 RMK A01 T03220086  RH  024%=      5-min Rain = 0
KMUS 261815Z 17013G22KT 32/08 A3013 RMK A01 T03210084  RH  024%=      5-min Rain = 0
KMUS 261820Z 17014G20KT 32/09 A3012 RMK A01 T03230088  RH  024%=      5-min Rain = 0
KMUS 261825Z 16016G21KT 32/08 A3012 RMK A01 T03240083  RH  023%=      5-min Rain = 0
KMUS 261830Z 17014G19KT 33/08 A3012 RMK A01 T03260079  RH  022%=      5-min Rain = 0
KMUS 261835Z 17015G20KT 33/08 A3012 RMK A01 T03260084  RH  023%=      5-min Rain = 0
KMUS 261840Z 17015G22KT 33/09 A3012 RMK A01 T03250086  RH  024%=      5-min Rain = 0
KMUS 261845Z 16014G19KT 33/09 A3012 RMK A01 T03250086  RH  024%=      5-min Rain = 0
KMUS 261850Z 16015G21KT 33/09 A3012 RMK A01 T03270085  RH  023%=      5-min Rain = 0
KMUS 261855Z 16016G24KT 33/07 A3012 RMK A01 T03280074  RH  021%=      5-min Rain = 0
KMUS 261900Z 16017G24KT 33/08 A3012 RMK A01 T03270082  RH  023%=      5-min Rain = 0
KMUS 261905Z 16014G21KT 33/08 A3012 RMK A01 T03280080  RH  022%=      5-min Rain = 0
KMUS 261910Z 16016KT 33/08 A3012 RMK A01 T03310079  RH  022%=      5-min Rain = 0
KMUS 261915Z 16016KT 33/08 A3012 RMK A01 T03310080  RH  022%=      5-min Rain = 0
KMUS 261920Z 16015G22KT 33/08 A3011 RMK A01 T03310079  RH  022%=      5-min Rain = 0
KMUS 261925Z 17014G20KT 33/08 A3011 RMK A01 T03330083  RH  022%=      5-min Rain = 0
KMUS 261930Z 17013G18KT 34/09 A3011 RMK A01 T03350088  RH  023%=      5-min Rain = 0
KMUS 261935Z 15016G21KT 33/07 A3011 RMK A01 T03330074  RH  021%=      5-min Rain = 0
KMUS 261940Z 16016G22KT 34/08 A3011 RMK A01 T03350078  RH  021%=      5-min Rain = 0
KMUS 261945Z 16016KT 33/07 A3011 RMK A01 T03340073  RH  020%=      5-min Rain = 0
KMUS 261950Z 18015G21KT 34/08 A3011 RMK A01 T03360077  RH  021%=      5-min Rain = 0
KMUS 261955Z 16015G20KT 34/07 A3011 RMK A01 T03370067  RH  019%=      5-min Rain = 0
KMUS 262000Z 16015G21KT 34/06 A3011 RMK A01 T03380058  RH  018%=      5-min Rain = 0
KMUS 262005Z 15015G24KT 34/07 A3011 RMK A01 T03370073  RH  020%=      5-min Rain = 0
KMUS 262010Z 15016G23KT 34/08 A3011 RMK A01 T03380076  RH  020%=      5-min Rain = 0
KMUS 262015Z 16015G22KT 34/08 A301 RMK A01 T03380079  RH  021%=      5-min Rain = 0
KMUS 262020Z 16015KT 34/07 A301 RMK A01 T03400073  RH  020%=      5-min Rain = 0
KMUS 262025Z 17015G23KT 34/07 A301 RMK A01 T03370069  RH  019%=      5-min Rain = 0
KMUS 262030Z 16016G21KT 34/07 A301 RMK A01 T03380070  RH  020%=      5-min Rain = 0
KMUS 262035Z 16015G20KT 34/08 A301 RMK A01 T03370078  RH  021%=      5-min Rain = 0
KMUS 262040Z 16014G19KT 34/07 A301 RMK A01 T03380074  RH  020%=      5-min Rain = 0
KMUS 262045Z 16016G21KT 34/08 A301 RMK A01 T03390077  RH  020%=      5-min Rain = 0
KMUS 262050Z 16017G25KT 34/07 A301 RMK A01 T03380073  RH  020%=      5-min Rain = 0
KMUS 262055Z 15016G24KT 34/07 A301 RMK A01 T03360073  RH  020%=      5-min Rain = 0
KMUS 262100Z 15016G22KT 34/07 A301 RMK A01 T03360072  RH  020%=      5-min Rain = 0
KMUS 262105Z 17015G21KT 34/08 A301 RMK A01 T03380076  RH  020%=      5-min Rain = 0
KMUS 262110Z 17014G22KT 34/08 A3009 RMK A01 T03370083  RH  022%=      5-min Rain = 0
KMUS 262115Z 17016G22KT 34/09 A3009 RMK A01 T03380085  RH  022%=      5-min Rain = 0
KMUS 262120Z 18015G21KT 34/08 A3009 RMK A01 T03380080  RH  021%=      5-min Rain = 0
KMUS 262125Z 16016G27KT 34/08 A3009 RMK A01 T03380082  RH  021%=      5-min Rain = 0
KMUS 262130Z 16017G23KT 34/08 A3009 RMK A01 T03370080  RH  021%=      5-min Rain = 0
KMUS 262135Z 16017G25KT 34/08 A3009 RMK A01 T03360083  RH  022%=      5-min Rain = 0
KMUS 262140Z 17018G24KT 34/08 A3009 RMK A01 T03350077  RH  021%=      5-min Rain = 0
KMUS 262145Z 15015G20KT 34/08 A3009 RMK A01 T03360080  RH  021%=      5-min Rain = 0
KMUS 262150Z 16017KT 34/08 A3009 RMK A01 T03370082  RH  021%=      5-min Rain = 0
KMUS 262155Z 16016G22KT 34/08 A3009 RMK A01 T03360079  RH  021%=      5-min Rain = 0
KMUS 262200Z 17015G21KT 34/09 A3008 RMK A01 T03360088  RH  022%=      5-min Rain = 0
KMUS 262205Z 16018G23KT 34/09 A3008 RMK A01 T03360086  RH  022%=      5-min Rain = 0
KMUS 262210Z 17015G21KT 33/08 A3008 RMK A01 T03340082  RH  022%=      5-min Rain = 0
KMUS 262215Z 16015G21KT 33/09 A3008 RMK A01 T03330089  RH  023%=      5-min Rain = 0
KMUS 262220Z 16015G21KT 33/09 A3008 RMK A01 T03310088  RH  023%=      5-min Rain = 0
KMUS 262225Z 15015G20KT 33/09 A3008 RMK A01 T03280089  RH  024%=      5-min Rain = 0
KMUS 262230Z 16017G23KT 33/09 A3008 RMK A01 T03270090  RH  024%=      5-min Rain = 0
KMUS 262235Z 16016KT 33/09 A3008 RMK A01 T03280092  RH  024%=      5-min Rain = 0
KMUS 262240Z 16016G22KT 33/09 A3007 RMK A01 T03310091  RH  024%=      5-min Rain = 0
KMUS 262245Z 16016G23KT 33/10 A3007 RMK A01 T03320095  RH  024%=      5-min Rain = 0
KMUS 262250Z 16017G23KT 33/09 A3008 RMK A01 T03270091  RH  024%=      5-min Rain = 0
KMUS 262255Z 16017G22KT 32/09 A3008 RMK A01 T03230092  RH  025%=      5-min Rain = 0
KMUS 262300Z 17015G20KT 32/09 A3008 RMK A01 T03190090  RH  025%=      5-min Rain = 0
KMUS 262305Z 15015G21KT 32/09 A3008 RMK A01 T03170091  RH  025%=      5-min Rain = 0
KMUS 262310Z 16016KT 32/09 A3009 RMK A01 T03150089  RH  025%=      5-min Rain = 0
KMUS 262315Z 16014G20KT 31/10 A3009 RMK A01 T03140095  RH  027%=      5-min Rain = 0
KMUS 262320Z 16014G19KT 31/10 A3009 RMK A01 T03130098  RH  027%=      5-min Rain = 0
KMUS 262325Z 16014KT 31/10 A3009 RMK A01 T03120101  RH  028%=      5-min Rain = 0
KMUS 262330Z 16014G19KT 31/10 A3009 RMK A01 T03110102  RH  028%=      5-min Rain = 0
KMUS 262335Z 15015KT 31/10 A3009 RMK A01 T03110101  RH  028%=      5-min Rain = 0
KMUS 262340Z 16016KT 31/10 A3008 RMK A01 T03100102  RH  028%=      5-min Rain = 0
KMUS 262345Z 16016G21KT 31/10 A3009 RMK A01 T03090101  RH  029%=      5-min Rain = 0
KMUS 262350Z 16014KT 31/10 A3009 RMK A01 T03070102  RH  029%=      5-min Rain = 0
KMUS 262355Z 16014KT 31/10 A3009 RMK A01 T03060104  RH  030%=      5-min Rain = 0
KMUS 270000Z 16016KT 31/10 A3009 RMK A01 T03060103  RH  029%=      5-min Rain = 0
KMUS 270005Z 16015KT 31/11 A3009 RMK A01 T03050106  RH  030%=      5-min Rain = 0
KMUS 270010Z 16014G20KT 30/11 A3009 RMK A01 T03040105  RH  030%=      5-min Rain = 0
KMUS 270015Z 16012G17KT 30/11 A3009 RMK A01 T03020109  RH  032%=      5-min Rain = 0
KMUS 270020Z 16012G18KT 30/11 A301 RMK A01 T03000112  RH  032%=      5-min Rain = 0
KMUS 270025Z 16013KT 30/11 A301 RMK A01 T03010113  RH  033%=      5-min Rain = 0
KMUS 270030Z 16013G18KT 30/11 A301 RMK A01 T03000114  RH  033%=      5-min Rain = 0
KMUS 270035Z 15012G17KT 30/11 A3011 RMK A01 T02990114  RH  033%=      5-min Rain = 0
KMUS 270040Z 16012KT 30/12 A3011 RMK A01 T02980115  RH  033%=      5-min Rain = 0
KMUS 270045Z 16012KT 30/12 A3011 RMK A01 T02960115  RH  034%=      5-min Rain = 0
KMUS 270050Z 16011KT 30/12 A3011 RMK A01 T02950117  RH  035%=      5-min Rain = 0
KMUS 270055Z 16011KT 29/12 A3011 RMK A01 T02930119  RH  035%=      5-min Rain = 0
KMUS 270100Z 16011KT 29/12 A3011 RMK A01 T02910119  RH  036%=      5-min Rain = 0
KMUS 270105Z 16012KT 29/12 A301 RMK A01 T02900118  RH  036%=      5-min Rain = 0
KMUS 270110Z 17012KT 29/12 A301 RMK A01 T02900118  RH  036%=      5-min Rain = 0
KMUS 270115Z 17014KT 29/12 A301 RMK A01 T02900117  RH  036%=      5-min Rain = 0
KMUS 270120Z 17013KT 29/12 A301 RMK A01 T02900118  RH  036%=      5-min Rain = 0
KMUS 270125Z 16012KT 29/12 A301 RMK A01 T02880120  RH  037%=      5-min Rain = 0
KMUS 270130Z 15011KT 29/12 A3011 RMK A01 T02850120  RH  037%=      5-min Rain = 0
KMUS 270135Z 15011KT 29/12 A3012 RMK A01 T02850117  RH  037%=      5-min Rain = 0
KMUS 270140Z 15008KT 28/12 A3013 RMK A01 T02840118  RH  037%=      5-min Rain = 0
KMUS 270145Z 14007KT 28/12 A3013 RMK A01 T02830117  RH  037%=      5-min Rain = 0
KMUS 270150Z 14006KT 28/12 A3014 RMK A01 T02820118  RH  037%=      5-min Rain = 0
KMUS 270155Z 14005KT 28/12 A3015 RMK A01 T02790119  RH  038%=      5-min Rain = 0
KMUS 270200Z 14004KT 28/12 A3015 RMK A01 T02770119  RH  039%=      5-min Rain = 0
KMUS 270205Z 16002KT 28/12 A3016 RMK A01 T02750120  RH  040%=      5-min Rain = 0
KMUS 270210Z 26005G10KT 27/13 A3017 RMK A01 T02730125  RH  042%=      5-min Rain = 0
KMUS 270215Z 28010KT 27/12 A3017 RMK A01 T02700117  RH  040%=      5-min Rain = 0
KMUS 270220Z 28010G16KT 28/10 A3018 RMK A01 T02770095  RH  033%=      5-min Rain = 0
KMUS 270225Z 28014G21KT 28/10 A3019 RMK A01 T02810100  RH  033%=      5-min Rain = 0
KMUS 270230Z 29013G23KT 28/09 A3019 RMK A01 T02760087  RH  032%=      5-min Rain = 0
KMUS 270235Z 30017G24KT 27/09 A3019 RMK A01 T02700087  RH  032%=      5-min Rain = 0
KMUS 270240Z 31016G23KT 27/09 A302 RMK A01 T02680089  RH  033%=      5-min Rain = 0
KMUS 270245Z 31013KT 27/09 A302 RMK A01 T02650093  RH  035%=      5-min Rain = 0
KMUS 270250Z 30007G13KT 26/10 A3022 RMK A01 T02630099  RH  037%=      5-min Rain = 0
KMUS 270255Z 28005KT 26/10 A3022 RMK A01 T02560104  RH  040%=      5-min Rain = 0
KMUS 270300Z 26005KT 25/10 A3023 RMK A01 T02510102  RH  040%=      5-min Rain = 0
KMUS 270305Z 25005KT 25/10 A3022 RMK A01 T02480103  RH  042%=      5-min Rain = 0
KMUS 270310Z 24005KT 25/11 A3022 RMK A01 T02470106  RH  042%=      5-min Rain = 0
KMUS 270315Z 22007KT 25/11 A3022 RMK A01 T02450112  RH  045%=      5-min Rain = 0
KMUS 270320Z 22007KT 24/12 A3021 RMK A01 T02430117  RH  047%=      5-min Rain = 0
KMUS 270325Z 24008KT 24/12 A3021 RMK A01 T02420118  RH  047%=      5-min Rain = 0
KMUS 270330Z 25009KT 24/12 A3022 RMK A01 T02430116  RH  047%=      5-min Rain = 0
KMUS 270335Z 25008KT 25/11 A3022 RMK A01 T02460112  RH  045%=      5-min Rain = 0
KMUS 270340Z 24006KT 25/11 A3023 RMK A01 T02470114  RH  045%=      5-min Rain = 0
KMUS 270345Z 31011G23KT 25/12 A3023 RMK A01 T02450118  RH  047%=      5-min Rain = 0
KMUS 270350Z 05007G16KT 26/08 A3021 RMK A01 T02630077  RH  031%=      5-min Rain = 0
KMUS 270355Z 11003KT 27/09 A302 RMK A01 T02730090  RH  033%=      5-min Rain = 0
KMUS 270400Z 14004KT 27/09 A3018 RMK A01 T02720088  RH  032%=      5-min Rain = 0
KMUS 270405Z 16003KT 27/08 A3018 RMK A01 T02730079  RH  030%=      5-min Rain = 0
KMUS 270410Z 16004KT 28/07 A3017 RMK A01 T02820067  RH  026%=      5-min Rain = 0
KMUS 270415Z 16005G10KT 28/07 A3015 RMK A01 T02810071  RH  027%=      5-min Rain = 0
KMUS 270420Z 17013KT 27/08 A3014 RMK A01 T02700084  RH  032%=      5-min Rain = 0
KMUS 270425Z 17017KT 27/09 A3013 RMK A01 T02700087  RH  033%=      5-min Rain = 0
KMUS 270430Z 18018KT 26/10 A3012 RMK A01 T02590103  RH  039%=      5-min Rain = 0
KMUS 270435Z 19019KT 27/10 A3011 RMK A01 T02650099  RH  036%=      5-min Rain = 0
KMUS 270440Z 19018G23KT 27/10 A3011 RMK A01 T02660101  RH  036%=      5-min Rain = 0
KMUS 270445Z 18019KT 27/10 A3011 RMK A01 T02680101  RH  036%=      5-min Rain = 0
KMUS 270450Z 17018G23KT 27/10 A3011 RMK A01 T02680103  RH  037%=      5-min Rain = 0
KMUS 270455Z 18018G24KT 27/10 A3011 RMK A01 T02680104  RH  037%=      5-min Rain = 0

Page generated in 0.0094 seconds.